sensor_id;sensor_type;location;lat;lon;timestamp;P1;durP1;ratioP1;P2;durP2;ratioP2
69917;SDS011;57203;42.672;23.334;2023-07-31T00:00:26;2.9;;;2.6;;
69917;SDS011;57203;42.672;23.334;2023-07-31T00:02:27;2.8;;;2.4;;
69917;SDS011;57203;42.672;23.334;2023-07-31T00:03:27;3.0;;;3.6;;
69917;SDS011;57203;42.672;23.334;2023-07-31T00:04:27;6.3;;;2.3;;
69917;SDS011;57203;42.672;23.334;2023-07-31T00:05:28;3.0;;;2.1;;
69917;SDS011;57203;42.672;23.334;2023-07-31T00:06:28;2.6;;;2.5;;
69917;SDS011;57203;42.672;23.334;2023-07-31T00:10:29;4.7;;;2.3;;
69917;SDS011;57203;42.672;23.334;2023-07-31T00:11:29;2.7;;;2.5;;
69917;SDS011;57203;42.672;23.334;2023-07-31T00:12:30;3.4;;;2.4;;
69917;SDS011;57203;42.672;23.334;2023-07-31T00:13:30;3.1;;;2.3;;
69917;SDS011;57203;42.672;23.334;2023-07-31T00:14:30;3.1;;;2.5;;
69917;SDS011;57203;42.672;23.334;2023-07-31T00:15:30;3.3;;;2.2;;
69917;SDS011;57203;42.672;23.334;2023-07-31T00:16:30;2.6;;;2.6;;
69917;SDS011;57203;42.672;23.334;2023-07-31T00:17:31;4.0;;;2.5;;
69917;SDS011;57203;42.672;23.334;2023-07-31T00:18:31;3.5;;;2.8;;
69917;SDS011;57203;42.672;23.334;2023-07-31T00:19:31;2.8;;;2.3;;
69917;SDS011;57203;42.672;23.334;2023-07-31T00:20:32;2.8;;;2.6;;
69917;SDS011;57203;42.672;23.334;2023-07-31T00:21:32;3.1;;;2.5;;
69917;SDS011;57203;42.672;23.334;2023-07-31T00:22:32;5.6;;;2.4;;
69917;SDS011;57203;42.672;23.334;2023-07-31T00:23:32;3.2;;;2.5;;
69917;SDS011;57203;42.672;23.334;2023-07-31T00:24:33;3.2;;;2.6;;
69917;SDS011;57203;42.672;23.334;2023-07-31T00:25:33;2.9;;;2.4;;
69917;SDS011;57203;42.672;23.334;2023-07-31T00:26:33;2.6;;;2.5;;
69917;SDS011;57203;42.672;23.334;2023-07-31T00:27:33;3.5;;;2.3;;
69917;SDS011;57203;42.672;23.334;2023-07-31T00:28:34;3.0;;;2.7;;
69917;SDS011;57203;42.672;23.334;2023-07-31T00:29:34;3.0;;;2.8;;
69917;SDS011;57203;42.672;23.334;2023-07-31T00:30:34;4.3;;;3.0;;
69917;SDS011;57203;42.672;23.334;2023-07-31T00:32:34;3.3;;;2.9;;
69917;SDS011;57203;42.672;23.334;2023-07-31T00:33:35;3.2;;;3.1;;
69917;SDS011;57203;42.672;23.334;2023-07-31T00:35:35;3.5;;;3.4;;
69917;SDS011;57203;42.672;23.334;2023-07-31T00:38:36;3.8;;;3.3;;
69917;SDS011;57203;42.672;23.334;2023-07-31T00:39:36;3.9;;;3.5;;
69917;SDS011;57203;42.672;23.334;2023-07-31T00:40:36;3.8;;;3.7;;
69917;SDS011;57203;42.672;23.334;2023-07-31T00:41:37;5.5;;;3.5;;
69917;SDS011;57203;42.672;23.334;2023-07-31T00:42:37;3.9;;;3.3;;
69917;SDS011;57203;42.672;23.334;2023-07-31T00:43:37;3.9;;;3.6;;
69917;SDS011;57203;42.672;23.334;2023-07-31T00:44:37;5.1;;;3.7;;
69917;SDS011;57203;42.672;23.334;2023-07-31T00:48:38;4.1;;;3.9;;
69917;SDS011;57203;42.672;23.334;2023-07-31T00:49:39;4.4;;;4.5;;
69917;SDS011;57203;42.672;23.334;2023-07-31T00:50:39;5.0;;;4.7;;
69917;SDS011;57203;42.672;23.334;2023-07-31T00:51:39;5.2;;;4.9;;
69917;SDS011;57203;42.672;23.334;2023-07-31T00:53:40;6.0;;;5.1;;
69917;SDS011;57203;42.672;23.334;2023-07-31T00:54:40;6.0;;;5.6;;
69917;SDS011;57203;42.672;23.334;2023-07-31T00:55:40;6.2;;;5.7;;
69917;SDS011;57203;42.672;23.334;2023-07-31T00:56:41;6.5;;;5.8;;
69917;SDS011;57203;42.672;23.334;2023-07-31T00:59:41;6.3;;;5.7;;
69917;SDS011;57203;42.672;23.334;2023-07-31T01:00:41;6.3;;;6.1;;
69917;SDS011;57203;42.672;23.334;2023-07-31T01:01:42;7.2;;;6.5;;
69917;SDS011;57203;42.672;23.334;2023-07-31T01:02:42;7.2;;;5.7;;
69917;SDS011;57203;42.672;23.334;2023-07-31T01:03:42;6.8;;;5.8;;
69917;SDS011;57203;42.672;23.334;2023-07-31T01:04:43;6.8;;;5.4;;
69917;SDS011;57203;42.672;23.334;2023-07-31T01:05:45;6.8;;;5.8;;
69917;SDS011;57203;42.672;23.334;2023-07-31T01:06:44;7.2;;;6.1;;
69917;SDS011;57203;42.672;23.334;2023-07-31T01:08:47;6.8;;;5.7;;
69917;SDS011;57203;42.672;23.334;2023-07-31T01:09:44;6.3;;;6.2;;
69917;SDS011;57203;42.672;23.334;2023-07-31T01:11:46;6.9;;;7.1;;
69917;SDS011;57203;42.672;23.334;2023-07-31T01:12:45;7.9;;;7.3;;
69917;SDS011;57203;42.672;23.334;2023-07-31T01:14:50;8.4;;;8.2;;
69917;SDS011;57203;42.672;23.334;2023-07-31T01:15:45;9.2;;;8.1;;
69917;SDS011;57203;42.672;23.334;2023-07-31T01:16:46;8.8;;;7.9;;
69917;SDS011;57203;42.672;23.334;2023-07-31T01:17:46;8.8;;;7.6;;
69917;SDS011;57203;42.672;23.334;2023-07-31T01:18:46;9.9;;;8.4;;
69917;SDS011;57203;42.672;23.334;2023-07-31T01:19:46;10.0;;;9.7;;
69917;SDS011;57203;42.672;23.334;2023-07-31T01:20:47;11.4;;;9.5;;
69917;SDS011;57203;42.672;23.334;2023-07-31T01:21:53;11.4;;;9.6;;
69917;SDS011;57203;42.672;23.334;2023-07-31T01:24:52;10.8;;;9.2;;
69917;SDS011;57203;42.672;23.334;2023-07-31T01:25:48;11.5;;;9.8;;
69917;SDS011;57203;42.672;23.334;2023-07-31T01:26:49;12.4;;;10.1;;
69917;SDS011;57203;42.672;23.334;2023-07-31T01:27:50;12.4;;;10.2;;
69917;SDS011;57203;42.672;23.334;2023-07-31T01:28:50;12.1;;;10.7;;
69917;SDS011;57203;42.672;23.334;2023-07-31T01:29:50;12.1;;;10.9;;
69917;SDS011;57203;42.672;23.334;2023-07-31T01:30:49;12.5;;;10.7;;
69917;SDS011;57203;42.672;23.334;2023-07-31T01:31:49;12.6;;;11.0;;
69917;SDS011;57203;42.672;23.334;2023-07-31T01:32:49;12.6;;;11.3;;
69917;SDS011;57203;42.672;23.334;2023-07-31T01:34:50;12.6;;;12.4;;
69917;SDS011;57203;42.672;23.334;2023-07-31T01:35:50;15.3;;;12.3;;
69917;SDS011;57203;42.672;23.334;2023-07-31T01:36:50;13.7;;;11.9;;
69917;SDS011;57203;42.672;23.334;2023-07-31T01:37:52;13.7;;;11.8;;
69917;SDS011;57203;42.672;23.334;2023-07-31T01:38:51;13.8;;;13.7;;
69917;SDS011;57203;42.672;23.334;2023-07-31T01:39:51;15.9;;;13.2;;
69917;SDS011;57203;42.672;23.334;2023-07-31T01:40:52;15.9;;;13.4;;
69917;SDS011;57203;42.672;23.334;2023-07-31T01:41:52;17.7;;;14.8;;
69917;SDS011;57203;42.672;23.334;2023-07-31T01:42:52;17.7;;;14.3;;
69917;SDS011;57203;42.672;23.334;2023-07-31T01:43:52;18.3;;;14.9;;
69917;SDS011;57203;42.672;23.334;2023-07-31T01:44:52;19.0;;;14.8;;
69917;SDS011;57203;42.672;23.334;2023-07-31T01:45:53;19.6;;;14.3;;
69917;SDS011;57203;42.672;23.334;2023-07-31T01:46:53;16.6;;;15.5;;
69917;SDS011;57203;42.672;23.334;2023-07-31T01:47:53;19.1;;;14.7;;
69917;SDS011;57203;42.672;23.334;2023-07-31T01:48:53;17.4;;;16.1;;
69917;SDS011;57203;42.672;23.334;2023-07-31T01:49:54;19.3;;;16.0;;
69917;SDS011;57203;42.672;23.334;2023-07-31T01:50:54;20.2;;;16.5;;
69917;SDS011;57203;42.672;23.334;2023-07-31T01:51:54;20.1;;;16.6;;
69917;SDS011;57203;42.672;23.334;2023-07-31T01:52:54;20.8;;;16.2;;
69917;SDS011;57203;42.672;23.334;2023-07-31T01:53:55;20.8;;;16.4;;
69917;SDS011;57203;42.672;23.334;2023-07-31T01:54:55;20.2;;;17.5;;
69917;SDS011;57203;42.672;23.334;2023-07-31T01:55:55;25.0;;;18.1;;
69917;SDS011;57203;42.672;23.334;2023-07-31T01:56:55;25.0;;;16.4;;
69917;SDS011;57203;42.672;23.334;2023-07-31T01:57:56;20.5;;;18.2;;
69917;SDS011;57203;42.672;23.334;2023-07-31T01:58:56;22.4;;;18.0;;
69917;SDS011;57203;42.672;23.334;2023-07-31T02:00:56;23.1;;;18.5;;
69917;SDS011;57203;42.672;23.334;2023-07-31T02:01:57;23.1;;;18.7;;
69917;SDS011;57203;42.672;23.334;2023-07-31T02:02:57;23.8;;;18.8;;
69917;SDS011;57203;42.672;23.334;2023-07-31T02:04:57;24.3;;;18.4;;
69917;SDS011;57203;42.672;23.334;2023-07-31T02:05:58;23.2;;;18.0;;
69917;SDS011;57203;42.672;23.334;2023-07-31T02:06:58;25.6;;;19.6;;
69917;SDS011;57203;42.672;23.334;2023-07-31T02:07:58;25.0;;;19.8;;
69917;SDS011;57203;42.672;23.334;2023-07-31T02:08:59;25.0;;;18.5;;
69917;SDS011;57203;42.672;23.334;2023-07-31T02:09:59;23.3;;;19.7;;
69917;SDS011;57203;42.672;23.334;2023-07-31T02:10:59;25.2;;;19.0;;
69917;SDS011;57203;42.672;23.334;2023-07-31T02:12:59;25.8;;;19.4;;
69917;SDS011;57203;42.672;23.334;2023-07-31T02:14:00;26.8;;;19.0;;
69917;SDS011;57203;42.672;23.334;2023-07-31T02:15:00;25.8;;;18.9;;
69917;SDS011;57203;42.672;23.334;2023-07-31T02:16:00;25.8;;;19.1;;
69917;SDS011;57203;42.672;23.334;2023-07-31T02:17:00;23.7;;;18.9;;
69917;SDS011;57203;42.672;23.334;2023-07-31T02:18:01;23.7;;;19.2;;
69917;SDS011;57203;42.672;23.334;2023-07-31T02:19:01;23.3;;;18.5;;
69917;SDS011;57203;42.672;23.334;2023-07-31T02:20:01;22.7;;;19.2;;
69917;SDS011;57203;42.672;23.334;2023-07-31T02:21:01;22.7;;;19.8;;
69917;SDS011;57203;42.672;23.334;2023-07-31T02:22:02;25.1;;;18.6;;
69917;SDS011;57203;42.672;23.334;2023-07-31T02:23:02;23.2;;;19.6;;
69917;SDS011;57203;42.672;23.334;2023-07-31T02:24:02;23.0;;;18.7;;
69917;SDS011;57203;42.672;23.334;2023-07-31T02:25:02;23.0;;;19.2;;
69917;SDS011;57203;42.672;23.334;2023-07-31T02:26:02;24.5;;;19.3;;
69917;SDS011;57203;42.672;23.334;2023-07-31T02:27:03;24.2;;;18.5;;
69917;SDS011;57203;42.672;23.334;2023-07-31T02:28:03;22.1;;;19.2;;
69917;SDS011;57203;42.672;23.334;2023-07-31T02:30:04;26.8;;;18.9;;
69917;SDS011;57203;42.672;23.334;2023-07-31T02:31:04;23.6;;;18.0;;
69917;SDS011;57203;42.672;23.334;2023-07-31T02:32:04;23.8;;;19.2;;
69917;SDS011;57203;42.672;23.334;2023-07-31T02:34:04;23.6;;;19.0;;
69917;SDS011;57203;42.672;23.334;2023-07-31T02:35:05;24.3;;;18.7;;
69917;SDS011;57203;42.672;23.334;2023-07-31T02:36:05;24.5;;;18.3;;
69917;SDS011;57203;42.672;23.334;2023-07-31T02:37:05;25.3;;;19.9;;
69917;SDS011;57203;42.672;23.334;2023-07-31T02:38:05;25.3;;;18.6;;
69917;SDS011;57203;42.672;23.334;2023-07-31T02:39:06;24.9;;;20.3;;
69917;SDS011;57203;42.672;23.334;2023-07-31T02:40:06;24.9;;;19.0;;
69917;SDS011;57203;42.672;23.334;2023-07-31T02:41:07;24.2;;;19.8;;
69917;SDS011;57203;42.672;23.334;2023-07-31T02:42:06;24.2;;;19.6;;
69917;SDS011;57203;42.672;23.334;2023-07-31T02:43:07;23.4;;;19.0;;
69917;SDS011;57203;42.672;23.334;2023-07-31T02:44:07;25.5;;;19.2;;
69917;SDS011;57203;42.672;23.334;2023-07-31T02:45:08;24.5;;;18.7;;
69917;SDS011;57203;42.672;23.334;2023-07-31T02:46:07;25.6;;;18.4;;
69917;SDS011;57203;42.672;23.334;2023-07-31T02:47:08;24.3;;;18.8;;
69917;SDS011;57203;42.672;23.334;2023-07-31T02:48:08;24.5;;;19.4;;
69917;SDS011;57203;42.672;23.334;2023-07-31T02:49:08;24.4;;;18.2;;
69917;SDS011;57203;42.672;23.334;2023-07-31T02:50:09;22.8;;;18.4;;
69917;SDS011;57203;42.672;23.334;2023-07-31T02:51:09;22.8;;;19.0;;
69917;SDS011;57203;42.672;23.334;2023-07-31T02:52:09;22.7;;;18.4;;
69917;SDS011;57203;42.672;23.334;2023-07-31T02:53:09;22.7;;;19.0;;
69917;SDS011;57203;42.672;23.334;2023-07-31T02:54:09;22.8;;;18.0;;
69917;SDS011;57203;42.672;23.334;2023-07-31T02:55:10;23.4;;;17.8;;
69917;SDS011;57203;42.672;23.334;2023-07-31T02:56:10;22.3;;;17.9;;
69917;SDS011;57203;42.672;23.334;2023-07-31T02:58:10;23.5;;;18.2;;
69917;SDS011;57203;42.672;23.334;2023-07-31T02:59:11;23.9;;;18.5;;
69917;SDS011;57203;42.672;23.334;2023-07-31T03:00:11;22.7;;;18.8;;
69917;SDS011;57203;42.672;23.334;2023-07-31T03:01:11;23.2;;;18.4;;
69917;SDS011;57203;42.672;23.334;2023-07-31T03:03:12;22.9;;;18.2;;
69917;SDS011;57203;42.672;23.334;2023-07-31T03:04:12;22.1;;;18.0;;
69917;SDS011;57203;42.672;23.334;2023-07-31T03:05:12;22.5;;;18.2;;
69917;SDS011;57203;42.672;23.334;2023-07-31T03:06:12;23.0;;;18.5;;
69917;SDS011;57203;42.672;23.334;2023-07-31T03:07:13;23.0;;;17.4;;
69917;SDS011;57203;42.672;23.334;2023-07-31T03:08:13;22.2;;;18.1;;
69917;SDS011;57203;42.672;23.334;2023-07-31T03:09:13;21.7;;;17.3;;
69917;SDS011;57203;42.672;23.334;2023-07-31T03:10:13;23.0;;;18.4;;
69917;SDS011;57203;42.672;23.334;2023-07-31T03:11:14;23.0;;;18.5;;
69917;SDS011;57203;42.672;23.334;2023-07-31T03:12:14;22.5;;;18.4;;
69917;SDS011;57203;42.672;23.334;2023-07-31T03:13:14;22.5;;;17.8;;
69917;SDS011;57203;42.672;23.334;2023-07-31T03:14:14;21.3;;;17.9;;
69917;SDS011;57203;42.672;23.334;2023-07-31T03:15:15;21.9;;;18.1;;
69917;SDS011;57203;42.672;23.334;2023-07-31T03:16:15;22.2;;;17.9;;
69917;SDS011;57203;42.672;23.334;2023-07-31T03:17:15;20.6;;;18.2;;
69917;SDS011;57203;42.672;23.334;2023-07-31T03:18:15;20.6;;;18.5;;
69917;SDS011;57203;42.672;23.334;2023-07-31T03:19:16;22.4;;;17.9;;
69917;SDS011;57203;42.672;23.334;2023-07-31T03:20:16;22.1;;;18.0;;
69917;SDS011;57203;42.672;23.334;2023-07-31T03:21:16;22.1;;;18.4;;
69917;SDS011;57203;42.672;23.334;2023-07-31T03:22:16;22.5;;;18.1;;
69917;SDS011;57203;42.672;23.334;2023-07-31T03:23:16;22.5;;;17.8;;
69917;SDS011;57203;42.672;23.334;2023-07-31T03:24:17;22.0;;;18.8;;
69917;SDS011;57203;42.672;23.334;2023-07-31T03:25:17;23.9;;;17.1;;
69917;SDS011;57203;42.672;23.334;2023-07-31T03:26:17;23.5;;;18.4;;
69917;SDS011;57203;42.672;23.334;2023-07-31T03:27:18;23.5;;;18.1;;
69917;SDS011;57203;42.672;23.334;2023-07-31T03:28:18;23.6;;;18.2;;
69917;SDS011;57203;42.672;23.334;2023-07-31T03:29:18;23.1;;;18.9;;
69917;SDS011;57203;42.672;23.334;2023-07-31T03:30:18;24.3;;;18.5;;
69917;SDS011;57203;42.672;23.334;2023-07-31T03:31:19;24.3;;;17.8;;
69917;SDS011;57203;42.672;23.334;2023-07-31T03:32:19;23.7;;;18.5;;
69917;SDS011;57203;42.672;23.334;2023-07-31T03:33:19;23.7;;;19.0;;
69917;SDS011;57203;42.672;23.334;2023-07-31T03:34:19;24.0;;;18.6;;
69917;SDS011;57203;42.672;23.334;2023-07-31T03:35:20;22.6;;;18.4;;
69917;SDS011;57203;42.672;23.334;2023-07-31T03:36:20;22.6;;;19.0;;
69917;SDS011;57203;42.672;23.334;2023-07-31T03:37:20;23.1;;;17.9;;
69917;SDS011;57203;42.672;23.334;2023-07-31T03:38:20;23.1;;;18.7;;
69917;SDS011;57203;42.672;23.334;2023-07-31T03:39:20;23.2;;;19.5;;
69917;SDS011;57203;42.672;23.334;2023-07-31T03:40:21;24.3;;;18.4;;
69917;SDS011;57203;42.672;23.334;2023-07-31T03:41:21;23.2;;;18.7;;
69917;SDS011;57203;42.672;23.334;2023-07-31T03:42:21;23.9;;;20.0;;
69917;SDS011;57203;42.672;23.334;2023-07-31T03:43:21;24.6;;;18.8;;
69917;SDS011;57203;42.672;23.334;2023-07-31T03:45:22;25.5;;;20.0;;
69917;SDS011;57203;42.672;23.334;2023-07-31T03:46:22;22.7;;;17.6;;
69917;SDS011;57203;42.672;23.334;2023-07-31T03:47:23;22.7;;;20.7;;
69917;SDS011;57203;42.672;23.334;2023-07-31T03:48:23;29.2;;;20.0;;
69917;SDS011;57203;42.672;23.334;2023-07-31T03:49:23;25.7;;;19.4;;
69917;SDS011;57203;42.672;23.334;2023-07-31T03:51:24;25.7;;;18.8;;
69917;SDS011;57203;42.672;23.334;2023-07-31T03:52:24;26.6;;;19.8;;
69917;SDS011;57203;42.672;23.334;2023-07-31T03:53:24;25.1;;;18.6;;
69917;SDS011;57203;42.672;23.334;2023-07-31T03:54:24;25.1;;;18.2;;
69917;SDS011;57203;42.672;23.334;2023-07-31T03:55:25;23.7;;;19.2;;
69917;SDS011;57203;42.672;23.334;2023-07-31T03:56:25;25.5;;;19.6;;
69917;SDS011;57203;42.672;23.334;2023-07-31T03:57:25;25.5;;;19.0;;
69917;SDS011;57203;42.672;23.334;2023-07-31T03:58:27;22.6;;;17.5;;
69917;SDS011;57203;42.672;23.334;2023-07-31T03:59:26;22.6;;;19.8;;
69917;SDS011;57203;42.672;23.334;2023-07-31T04:00:26;23.2;;;17.9;;
69917;SDS011;57203;42.672;23.334;2023-07-31T04:01:26;23.2;;;19.4;;
69917;SDS011;57203;42.672;23.334;2023-07-31T04:02:26;26.8;;;18.5;;
69917;SDS011;57203;42.672;23.334;2023-07-31T04:03:27;24.7;;;20.1;;
69917;SDS011;57203;42.672;23.334;2023-07-31T04:05:29;25.6;;;19.0;;
69917;SDS011;57203;42.672;23.334;2023-07-31T04:06:27;24.8;;;19.4;;
69917;SDS011;57203;42.672;23.334;2023-07-31T04:07:28;22.5;;;18.2;;
69917;SDS011;57203;42.672;23.334;2023-07-31T04:08:28;27.8;;;19.5;;
69917;SDS011;57203;42.672;23.334;2023-07-31T04:09:28;26.2;;;19.2;;
69917;SDS011;57203;42.672;23.334;2023-07-31T04:10:28;26.2;;;18.2;;
69917;SDS011;57203;42.672;23.334;2023-07-31T04:11:29;24.1;;;18.8;;
69917;SDS011;57203;42.672;23.334;2023-07-31T04:12:29;26.7;;;20.0;;
69917;SDS011;57203;42.672;23.334;2023-07-31T04:13:29;27.6;;;19.9;;
69917;SDS011;57203;42.672;23.334;2023-07-31T04:14:29;25.5;;;19.2;;
69917;SDS011;57203;42.672;23.334;2023-07-31T04:15:30;25.5;;;21.1;;
69917;SDS011;57203;42.672;23.334;2023-07-31T04:16:30;25.7;;;19.4;;
69917;SDS011;57203;42.672;23.334;2023-07-31T04:17:30;25.7;;;19.7;;
69917;SDS011;57203;42.672;23.334;2023-07-31T04:18:30;26.6;;;19.9;;
69917;SDS011;57203;42.672;23.334;2023-07-31T04:19:31;25.4;;;20.2;;
69917;SDS011;57203;42.672;23.334;2023-07-31T04:20:31;23.8;;;19.1;;
69917;SDS011;57203;42.672;23.334;2023-07-31T04:21:31;23.8;;;18.9;;
69917;SDS011;57203;42.672;23.334;2023-07-31T04:22:31;26.6;;;19.4;;
69917;SDS011;57203;42.672;23.334;2023-07-31T04:23:32;26.6;;;20.1;;
69917;SDS011;57203;42.672;23.334;2023-07-31T04:24:32;27.0;;;20.6;;
69917;SDS011;57203;42.672;23.334;2023-07-31T04:25:32;26.8;;;20.4;;
69917;SDS011;57203;42.672;23.334;2023-07-31T04:26:32;25.5;;;19.8;;
69917;SDS011;57203;42.672;23.334;2023-07-31T04:27:32;25.5;;;19.5;;
69917;SDS011;57203;42.672;23.334;2023-07-31T04:29:33;25.5;;;19.3;;
69917;SDS011;57203;42.672;23.334;2023-07-31T04:31:34;24.4;;;19.5;;
69917;SDS011;57203;42.672;23.334;2023-07-31T04:32:34;27.1;;;18.7;;
69917;SDS011;57203;42.672;23.334;2023-07-31T04:33:34;27.6;;;19.2;;
69917;SDS011;57203;42.672;23.334;2023-07-31T04:34:34;24.7;;;19.1;;
69917;SDS011;57203;42.672;23.334;2023-07-31T04:35:34;28.1;;;19.9;;
69917;SDS011;57203;42.672;23.334;2023-07-31T04:36:35;28.1;;;18.5;;
69917;SDS011;57203;42.672;23.334;2023-07-31T04:37:35;24.9;;;18.4;;
69917;SDS011;57203;42.672;23.334;2023-07-31T04:38:35;24.9;;;18.5;;
69917;SDS011;57203;42.672;23.334;2023-07-31T04:39:35;27.2;;;19.7;;
69917;SDS011;57203;42.672;23.334;2023-07-31T04:40:36;28.9;;;18.8;;
69917;SDS011;57203;42.672;23.334;2023-07-31T04:41:36;24.2;;;18.6;;
69917;SDS011;57203;42.672;23.334;2023-07-31T04:42:36;25.2;;;19.1;;
69917;SDS011;57203;42.672;23.334;2023-07-31T04:43:36;27.6;;;18.2;;
69917;SDS011;57203;42.672;23.334;2023-07-31T04:44:37;26.4;;;18.6;;
69917;SDS011;57203;42.672;23.334;2023-07-31T04:45:37;23.7;;;18.0;;
69917;SDS011;57203;42.672;23.334;2023-07-31T04:46:37;24.7;;;18.7;;
69917;SDS011;57203;42.672;23.334;2023-07-31T04:47:37;25.5;;;18.8;;
69917;SDS011;57203;42.672;23.334;2023-07-31T04:48:38;25.5;;;18.3;;
69917;SDS011;57203;42.672;23.334;2023-07-31T04:49:38;25.4;;;18.1;;
69917;SDS011;57203;42.672;23.334;2023-07-31T04:50:38;24.7;;;18.4;;
69917;SDS011;57203;42.672;23.334;2023-07-31T04:51:38;25.0;;;18.0;;
69917;SDS011;57203;42.672;23.334;2023-07-31T04:52:39;25.0;;;19.0;;
69917;SDS011;57203;42.672;23.334;2023-07-31T04:53:39;24.8;;;18.0;;
69917;SDS011;57203;42.672;23.334;2023-07-31T04:54:39;24.8;;;19.0;;
69917;SDS011;57203;42.672;23.334;2023-07-31T04:55:39;26.3;;;18.8;;
69917;SDS011;57203;42.672;23.334;2023-07-31T04:56:40;26.3;;;16.9;;
69917;SDS011;57203;42.672;23.334;2023-07-31T04:57:40;21.8;;;17.1;;
69917;SDS011;57203;42.672;23.334;2023-07-31T04:58:40;21.8;;;18.5;;
69917;SDS011;57203;42.672;23.334;2023-07-31T04:59:40;24.9;;;17.7;;
69917;SDS011;57203;42.672;23.334;2023-07-31T05:00:41;25.9;;;16.8;;
69917;SDS011;57203;42.672;23.334;2023-07-31T05:01:41;22.9;;;17.1;;
69917;SDS011;57203;42.672;23.334;2023-07-31T05:02:41;23.7;;;17.5;;
69917;SDS011;57203;42.672;23.334;2023-07-31T05:03:42;23.3;;;17.7;;
69917;SDS011;57203;42.672;23.334;2023-07-31T05:04:42;23.3;;;17.3;;
69917;SDS011;57203;42.672;23.334;2023-07-31T05:05:42;21.6;;;17.2;;
69917;SDS011;57203;42.672;23.334;2023-07-31T05:06:43;21.6;;;17.4;;
69917;SDS011;57203;42.672;23.334;2023-07-31T05:07:43;22.4;;;17.3;;
69917;SDS011;57203;42.672;23.334;2023-07-31T05:08:43;22.7;;;17.8;;
69917;SDS011;57203;42.672;23.334;2023-07-31T05:09:43;23.5;;;16.6;;
69917;SDS011;57203;42.672;23.334;2023-07-31T05:10:43;21.9;;;17.2;;
69917;SDS011;57203;42.672;23.334;2023-07-31T05:12:44;22.1;;;17.0;;
69917;SDS011;57203;42.672;23.334;2023-07-31T05:13:44;22.1;;;17.1;;
69917;SDS011;57203;42.672;23.334;2023-07-31T05:14:44;23.5;;;16.9;;
69917;SDS011;57203;42.672;23.334;2023-07-31T05:15:45;23.5;;;15.9;;
69917;SDS011;57203;42.672;23.334;2023-07-31T05:16:45;21.1;;;16.6;;
69917;SDS011;57203;42.672;23.334;2023-07-31T05:17:45;22.8;;;16.7;;
69917;SDS011;57203;42.672;23.334;2023-07-31T05:18:45;22.2;;;15.4;;
69917;SDS011;57203;42.672;23.334;2023-07-31T05:19:46;20.0;;;15.8;;
69917;SDS011;57203;42.672;23.334;2023-07-31T05:20:46;20.2;;;15.2;;
69917;SDS011;57203;42.672;23.334;2023-07-31T05:21:46;18.9;;;14.7;;
69917;SDS011;57203;42.672;23.334;2023-07-31T05:22:46;18.5;;;14.1;;
69917;SDS011;57203;42.672;23.334;2023-07-31T05:23:47;16.9;;;14.0;;
69917;SDS011;57203;42.672;23.334;2023-07-31T05:24:47;17.9;;;14.4;;
69917;SDS011;57203;42.672;23.334;2023-07-31T05:25:47;16.8;;;14.0;;
69917;SDS011;57203;42.672;23.334;2023-07-31T05:26:48;19.3;;;14.3;;
69917;SDS011;57203;42.672;23.334;2023-07-31T05:27:48;19.0;;;14.5;;
69917;SDS011;57203;42.672;23.334;2023-07-31T05:28:48;19.9;;;14.2;;
69917;SDS011;57203;42.672;23.334;2023-07-31T05:29:48;18.8;;;14.1;;
69917;SDS011;57203;42.672;23.334;2023-07-31T05:30:49;18.1;;;12.5;;
69917;SDS011;57203;42.672;23.334;2023-07-31T05:31:49;15.6;;;12.6;;
69917;SDS011;57203;42.672;23.334;2023-07-31T05:32:49;15.2;;;12.3;;
69917;SDS011;57203;42.672;23.334;2023-07-31T05:33:49;15.2;;;13.8;;
69917;SDS011;57203;42.672;23.334;2023-07-31T05:34:50;16.9;;;11.4;;
69917;SDS011;57203;42.672;23.334;2023-07-31T05:35:50;14.5;;;12.0;;
69917;SDS011;57203;42.672;23.334;2023-07-31T05:36:50;13.8;;;11.6;;
69917;SDS011;57203;42.672;23.334;2023-07-31T05:37:50;14.9;;;12.5;;
69917;SDS011;57203;42.672;23.334;2023-07-31T05:38:51;14.9;;;11.8;;
69917;SDS011;57203;42.672;23.334;2023-07-31T05:39:51;13.2;;;12.4;;
69917;SDS011;57203;42.672;23.334;2023-07-31T05:40:51;14.5;;;12.0;;
69917;SDS011;57203;42.672;23.334;2023-07-31T05:41:51;13.8;;;11.1;;
69917;SDS011;57203;42.672;23.334;2023-07-31T05:42:52;13.1;;;10.4;;
69917;SDS011;57203;42.672;23.334;2023-07-31T05:43:52;12.5;;;11.0;;
69917;SDS011;57203;42.672;23.334;2023-07-31T05:44:52;12.9;;;10.3;;
69917;SDS011;57203;42.672;23.334;2023-07-31T05:45:53;13.8;;;10.6;;
69917;SDS011;57203;42.672;23.334;2023-07-31T05:46:53;13.8;;;8.7;;
69917;SDS011;57203;42.672;23.334;2023-07-31T05:47:53;12.8;;;10.3;;
69917;SDS011;57203;42.672;23.334;2023-07-31T05:48:53;13.2;;;9.8;;
69917;SDS011;57203;42.672;23.334;2023-07-31T05:49:54;13.2;;;7.8;;
69917;SDS011;57203;42.672;23.334;2023-07-31T05:50:54;9.6;;;8.7;;
69917;SDS011;57203;42.672;23.334;2023-07-31T05:51:54;9.9;;;8.4;;
69917;SDS011;57203;42.672;23.334;2023-07-31T05:52:54;9.1;;;8.2;;
69917;SDS011;57203;42.672;23.334;2023-07-31T05:53:54;9.1;;;8.3;;
69917;SDS011;57203;42.672;23.334;2023-07-31T05:54:55;10.7;;;7.9;;
69917;SDS011;57203;42.672;23.334;2023-07-31T05:56:55;9.0;;;8.0;;
69917;SDS011;57203;42.672;23.334;2023-07-31T05:57:56;9.8;;;7.9;;
69917;SDS011;57203;42.672;23.334;2023-07-31T05:58:56;9.8;;;8.0;;
69917;SDS011;57203;42.672;23.334;2023-07-31T05:59:56;9.9;;;8.9;;
69917;SDS011;57203;42.672;23.334;2023-07-31T06:00:56;11.1;;;8.7;;
69917;SDS011;57203;42.672;23.334;2023-07-31T06:01:56;10.6;;;8.3;;
69917;SDS011;57203;42.672;23.334;2023-07-31T06:02:57;10.5;;;8.4;;
69917;SDS011;57203;42.672;23.334;2023-07-31T06:03:57;10.6;;;8.6;;
69917;SDS011;57203;42.672;23.334;2023-07-31T06:04:57;10.6;;;7.1;;
69917;SDS011;57203;42.672;23.334;2023-07-31T06:05:57;8.7;;;7.8;;
69917;SDS011;57203;42.672;23.334;2023-07-31T06:06:58;8.7;;;7.7;;
69917;SDS011;57203;42.672;23.334;2023-07-31T06:07:58;8.8;;;6.9;;
69917;SDS011;57203;42.672;23.334;2023-07-31T06:08:58;11.7;;;6.8;;
69917;SDS011;57203;42.672;23.334;2023-07-31T06:09:58;7.6;;;6.7;;
69917;SDS011;57203;42.672;23.334;2023-07-31T06:10:59;6.5;;;5.8;;
69917;SDS011;57203;42.672;23.334;2023-07-31T06:11:59;6.5;;;6.2;;
69917;SDS011;57203;42.672;23.334;2023-07-31T06:12:59;8.5;;;5.3;;
69917;SDS011;57203;42.672;23.334;2023-07-31T06:13:59;7.3;;;6.1;;
69917;SDS011;57203;42.672;23.334;2023-07-31T06:15:00;7.3;;;5.4;;
69917;SDS011;57203;42.672;23.334;2023-07-31T06:16:00;6.9;;;5.2;;
69917;SDS011;57203;42.672;23.334;2023-07-31T06:17:00;5.9;;;5.6;;
69917;SDS011;57203;42.672;23.334;2023-07-31T06:18:00;6.3;;;5.1;;
69917;SDS011;57203;42.672;23.334;2023-07-31T06:19:01;5.8;;;5.3;;
69917;SDS011;57203;42.672;23.334;2023-07-31T06:20:01;6.7;;;5.2;;
69917;SDS011;57203;42.672;23.334;2023-07-31T06:21:01;7.1;;;4.8;;
69917;SDS011;57203;42.672;23.334;2023-07-31T06:23:02;4.9;;;4.3;;
69917;SDS011;57203;42.672;23.334;2023-07-31T06:25:02;4.9;;;4.5;;
69917;SDS011;57203;42.672;23.334;2023-07-31T06:26:02;6.3;;;3.6;;
69917;SDS011;57203;42.672;23.334;2023-07-31T06:27:03;4.7;;;3.7;;
69917;SDS011;57203;42.672;23.334;2023-07-31T06:28:03;6.1;;;3.4;;
69917;SDS011;57203;42.672;23.334;2023-07-31T06:29:03;6.1;;;4.1;;
69917;SDS011;57203;42.672;23.334;2023-07-31T06:30:04;6.3;;;4.0;;
69917;SDS011;57203;42.672;23.334;2023-07-31T06:31:04;4.4;;;3.7;;
69917;SDS011;57203;42.672;23.334;2023-07-31T06:33:04;4.5;;;3.9;;
69917;SDS011;57203;42.672;23.334;2023-07-31T06:34:04;4.9;;;4.0;;
69917;SDS011;57203;42.672;23.334;2023-07-31T06:35:05;4.4;;;3.9;;
69917;SDS011;57203;42.672;23.334;2023-07-31T06:36:05;5.5;;;3.8;;
69917;SDS011;57203;42.672;23.334;2023-07-31T06:38:06;4.8;;;3.6;;
69917;SDS011;57203;42.672;23.334;2023-07-31T06:39:06;4.8;;;3.9;;